Sedalia, Missouri
Current Conditions -  °F | °C
As of 4:14 AM on Saturday 22 Nov 2014 (Local Time) from KDMO Reporting Station
Overcast Overcast  
Wind Chill: 52°   Ceiling: 7000
Heat Index: 52°   Visibility: 10mi
Dew Point: 46°   Wind: 14mph
Humidity: 80%   Direction: 190°S
Pressure: 30.05"   Gusts: NA
Location:  38.71°N, 93.23°W
Report Text: KDMO 221014Z AUTO 19012KT 10SM SCT019 OVC070 11/08 A3005 RMK AO2 T01110078
Loading
Personal Weather Stations






























Interactive Weather Map New forecast layout! Learn more

10-Day Weather Forecast

Advertisements
Track Severe Weather on mobile